sensor_id;sensor_type;location;lat;lon;timestamp;P1;durP1;ratioP1;P2;durP2;ratioP2
2175;SDS011;1094;49.902;10.876;2023-08-17T00:02:18;24.27;;;22.40;;
2175;SDS011;1094;49.902;10.876;2023-08-17T00:04:44;24.03;;;22.43;;
2175;SDS011;1094;49.902;10.876;2023-08-17T00:07:10;25.00;;;23.20;;
2175;SDS011;1094;49.902;10.876;2023-08-17T00:09:36;24.10;;;22.40;;
2175;SDS011;1094;49.902;10.876;2023-08-17T00:12:02;24.33;;;22.70;;
2175;SDS011;1094;49.902;10.876;2023-08-17T00:14:28;23.47;;;21.53;;
2175;SDS011;1094;49.902;10.876;2023-08-17T00:16:55;23.73;;;21.93;;
2175;SDS011;1094;49.902;10.876;2023-08-17T00:19:21;23.00;;;21.53;;
2175;SDS011;1094;49.902;10.876;2023-08-17T00:21:47;22.80;;;21.50;;
2175;SDS011;1094;49.902;10.876;2023-08-17T00:24:13;23.37;;;21.53;;
2175;SDS011;1094;49.902;10.876;2023-08-17T00:26:39;24.10;;;22.50;;
2175;SDS011;1094;49.902;10.876;2023-08-17T00:29:05;22.67;;;21.20;;
2175;SDS011;1094;49.902;10.876;2023-08-17T00:31:31;23.57;;;22.10;;
2175;SDS011;1094;49.902;10.876;2023-08-17T00:33:57;22.93;;;21.43;;
2175;SDS011;1094;49.902;10.876;2023-08-17T00:36:23;24.27;;;22.53;;
2175;SDS011;1094;49.902;10.876;2023-08-17T00:38:49;23.67;;;21.83;;
2175;SDS011;1094;49.902;10.876;2023-08-17T00:41:14;21.80;;;20.50;;
2175;SDS011;1094;49.902;10.876;2023-08-17T00:43:40;22.90;;;21.40;;
2175;SDS011;1094;49.902;10.876;2023-08-17T00:46:06;21.87;;;20.67;;
2175;SDS011;1094;49.902;10.876;2023-08-17T00:48:33;21.50;;;20.20;;
2175;SDS011;1094;49.902;10.876;2023-08-17T00:50:59;22.20;;;20.37;;
2175;SDS011;1094;49.902;10.876;2023-08-17T00:53:26;21.23;;;19.67;;
2175;SDS011;1094;49.902;10.876;2023-08-17T00:55:53;19.10;;;18.10;;
2175;SDS011;1094;49.902;10.876;2023-08-17T00:58:20;20.27;;;19.17;;
2175;SDS011;1094;49.902;10.876;2023-08-17T01:00:46;20.20;;;19.00;;
2175;SDS011;1094;49.902;10.876;2023-08-17T01:03:12;20.27;;;19.00;;
2175;SDS011;1094;49.902;10.876;2023-08-17T01:05:38;19.63;;;18.63;;
2175;SDS011;1094;49.902;10.876;2023-08-17T01:08:05;19.93;;;18.70;;
2175;SDS011;1094;49.902;10.876;2023-08-17T01:10:33;19.30;;;18.20;;
2175;SDS011;1094;49.902;10.876;2023-08-17T01:13:09;19.40;;;18.30;;
2175;SDS011;1094;49.902;10.876;2023-08-17T01:15:37;19.23;;;17.97;;
2175;SDS011;1094;49.902;10.876;2023-08-17T01:18:20;18.77;;;17.77;;
2175;SDS011;1094;49.902;10.876;2023-08-17T01:20:47;18.37;;;17.17;;
2175;SDS011;1094;49.902;10.876;2023-08-17T01:23:14;17.93;;;16.93;;
2175;SDS011;1094;49.902;10.876;2023-08-17T01:25:40;18.47;;;17.47;;
2175;SDS011;1094;49.902;10.876;2023-08-17T01:28:06;19.47;;;18.03;;
2175;SDS011;1094;49.902;10.876;2023-08-17T01:30:33;17.57;;;16.67;;
2175;SDS011;1094;49.902;10.876;2023-08-17T01:33:09;16.90;;;16.10;;
2175;SDS011;1094;49.902;10.876;2023-08-17T01:35:48;16.60;;;15.80;;
2175;SDS011;1094;49.902;10.876;2023-08-17T01:38:17;17.70;;;16.77;;
2175;SDS011;1094;49.902;10.876;2023-08-17T01:40:45;17.90;;;16.60;;
2175;SDS011;1094;49.902;10.876;2023-08-17T01:43:11;16.20;;;15.40;;
2175;SDS011;1094;49.902;10.876;2023-08-17T01:45:37;16.70;;;15.80;;
2175;SDS011;1094;49.902;10.876;2023-08-17T01:48:03;17.87;;;16.97;;
2175;SDS011;1094;49.902;10.876;2023-08-17T01:50:29;16.07;;;15.30;;
2175;SDS011;1094;49.902;10.876;2023-08-17T01:52:55;17.57;;;16.50;;
2175;SDS011;1094;49.902;10.876;2023-08-17T01:55:21;16.20;;;15.30;;
2175;SDS011;1094;49.902;10.876;2023-08-17T01:57:48;16.43;;;15.60;;
2175;SDS011;1094;49.902;10.876;2023-08-17T02:00:14;16.37;;;15.50;;
2175;SDS011;1094;49.902;10.876;2023-08-17T02:02:40;16.33;;;15.37;;
2175;SDS011;1094;49.902;10.876;2023-08-17T02:05:06;16.03;;;15.23;;
2175;SDS011;1094;49.902;10.876;2023-08-17T02:07:33;15.60;;;14.70;;
2175;SDS011;1094;49.902;10.876;2023-08-17T02:09:59;15.80;;;15.00;;
2175;SDS011;1094;49.902;10.876;2023-08-17T02:12:24;15.63;;;14.90;;
2175;SDS011;1094;49.902;10.876;2023-08-17T02:14:50;17.17;;;16.17;;
2175;SDS011;1094;49.902;10.876;2023-08-17T02:17:16;16.40;;;15.60;;
2175;SDS011;1094;49.902;10.876;2023-08-17T02:19:43;15.90;;;15.20;;
2175;SDS011;1094;49.902;10.876;2023-08-17T02:22:10;16.13;;;15.13;;
2175;SDS011;1094;49.902;10.876;2023-08-17T02:24:36;17.00;;;16.10;;
2175;SDS011;1094;49.902;10.876;2023-08-17T02:27:02;16.43;;;15.57;;
2175;SDS011;1094;49.902;10.876;2023-08-17T02:29:28;16.37;;;15.47;;
2175;SDS011;1094;49.902;10.876;2023-08-17T02:31:54;16.30;;;15.40;;
2175;SDS011;1094;49.902;10.876;2023-08-17T02:34:19;16.30;;;15.50;;
2175;SDS011;1094;49.902;10.876;2023-08-17T02:36:45;15.93;;;15.17;;
2175;SDS011;1094;49.902;10.876;2023-08-17T02:39:11;16.33;;;15.33;;
2175;SDS011;1094;49.902;10.876;2023-08-17T02:41:37;16.03;;;15.23;;
2175;SDS011;1094;49.902;10.876;2023-08-17T02:44:04;16.30;;;15.50;;
2175;SDS011;1094;49.902;10.876;2023-08-17T02:46:30;16.30;;;15.30;;
2175;SDS011;1094;49.902;10.876;2023-08-17T02:48:56;16.10;;;15.23;;
2175;SDS011;1094;49.902;10.876;2023-08-17T02:51:22;16.20;;;15.40;;
2175;SDS011;1094;49.902;10.876;2023-08-17T02:53:47;16.10;;;15.20;;
2175;SDS011;1094;49.902;10.876;2023-08-17T02:56:13;16.50;;;15.60;;
2175;SDS011;1094;49.902;10.876;2023-08-17T02:58:39;17.10;;;16.20;;
2175;SDS011;1094;49.902;10.876;2023-08-17T03:01:06;17.20;;;16.20;;
2175;SDS011;1094;49.902;10.876;2023-08-17T03:03:32;16.70;;;15.80;;
2175;SDS011;1094;49.902;10.876;2023-08-17T03:05:57;16.90;;;16.10;;
2175;SDS011;1094;49.902;10.876;2023-08-17T03:08:23;17.70;;;16.60;;
2175;SDS011;1094;49.902;10.876;2023-08-17T03:10:49;17.10;;;16.00;;
2175;SDS011;1094;49.902;10.876;2023-08-17T03:13:15;16.67;;;15.77;;
2175;SDS011;1094;49.902;10.876;2023-08-17T03:15:41;16.63;;;15.73;;
2175;SDS011;1094;49.902;10.876;2023-08-17T03:18:07;16.60;;;15.80;;
2175;SDS011;1094;49.902;10.876;2023-08-17T03:20:33;17.20;;;16.20;;
2175;SDS011;1094;49.902;10.876;2023-08-17T03:22:59;16.30;;;15.40;;
2175;SDS011;1094;49.902;10.876;2023-08-17T03:25:25;16.10;;;15.30;;
2175;SDS011;1094;49.902;10.876;2023-08-17T03:27:51;16.30;;;15.30;;
2175;SDS011;1094;49.902;10.876;2023-08-17T03:30:17;15.50;;;14.70;;
2175;SDS011;1094;49.902;10.876;2023-08-17T03:32:43;16.10;;;15.20;;
2175;SDS011;1094;49.902;10.876;2023-08-17T03:35:09;15.83;;;14.80;;
2175;SDS011;1094;49.902;10.876;2023-08-17T03:37:35;15.30;;;14.40;;
2175;SDS011;1094;49.902;10.876;2023-08-17T03:40:01;14.87;;;14.17;;
2175;SDS011;1094;49.902;10.876;2023-08-17T03:42:27;14.87;;;14.03;;
2175;SDS011;1094;49.902;10.876;2023-08-17T03:44:54;14.80;;;13.80;;
2175;SDS011;1094;49.902;10.876;2023-08-17T03:47:20;16.20;;;15.30;;
2175;SDS011;1094;49.902;10.876;2023-08-17T03:49:46;14.97;;;14.27;;
2175;SDS011;1094;49.902;10.876;2023-08-17T03:52:12;15.57;;;14.77;;
2175;SDS011;1094;49.902;10.876;2023-08-17T03:54:38;14.70;;;14.00;;
2175;SDS011;1094;49.902;10.876;2023-08-17T03:57:04;14.90;;;14.20;;
2175;SDS011;1094;49.902;10.876;2023-08-17T03:59:30;15.23;;;14.43;;
2175;SDS011;1094;49.902;10.876;2023-08-17T04:01:56;14.70;;;14.00;;
2175;SDS011;1094;49.902;10.876;2023-08-17T04:04:22;14.70;;;14.00;;
2175;SDS011;1094;49.902;10.876;2023-08-17T04:06:48;15.33;;;14.43;;
2175;SDS011;1094;49.902;10.876;2023-08-17T04:09:14;15.13;;;14.30;;
2175;SDS011;1094;49.902;10.876;2023-08-17T04:11:39;14.40;;;13.60;;
2175;SDS011;1094;49.902;10.876;2023-08-17T04:14:05;13.80;;;13.20;;
2175;SDS011;1094;49.902;10.876;2023-08-17T04:16:33;14.57;;;13.87;;
2175;SDS011;1094;49.902;10.876;2023-08-17T04:18:59;14.37;;;13.57;;
2175;SDS011;1094;49.902;10.876;2023-08-17T04:21:25;14.10;;;13.40;;
2175;SDS011;1094;49.902;10.876;2023-08-17T04:23:51;14.23;;;13.50;;
2175;SDS011;1094;49.902;10.876;2023-08-17T04:26:17;13.50;;;12.73;;
2175;SDS011;1094;49.902;10.876;2023-08-17T04:28:43;14.03;;;13.13;;
2175;SDS011;1094;49.902;10.876;2023-08-17T04:31:09;13.90;;;13.20;;
2175;SDS011;1094;49.902;10.876;2023-08-17T04:33:35;13.87;;;13.17;;
2175;SDS011;1094;49.902;10.876;2023-08-17T04:36:01;14.47;;;13.67;;
2175;SDS011;1094;49.902;10.876;2023-08-17T04:38:27;14.77;;;13.97;;
2175;SDS011;1094;49.902;10.876;2023-08-17T04:40:53;14.20;;;13.27;;
2175;SDS011;1094;49.902;10.876;2023-08-17T04:43:19;14.10;;;13.20;;
2175;SDS011;1094;49.902;10.876;2023-08-17T04:45:45;14.93;;;14.07;;
2175;SDS011;1094;49.902;10.876;2023-08-17T04:48:12;14.50;;;13.70;;
2175;SDS011;1094;49.902;10.876;2023-08-17T04:50:38;13.23;;;12.43;;
2175;SDS011;1094;49.902;10.876;2023-08-17T04:53:05;11.93;;;11.30;;
2175;SDS011;1094;49.902;10.876;2023-08-17T04:55:31;13.77;;;12.87;;
2175;SDS011;1094;49.902;10.876;2023-08-17T04:57:57;15.10;;;14.30;;
2175;SDS011;1094;49.902;10.876;2023-08-17T05:00:23;16.40;;;15.50;;
2175;SDS011;1094;49.902;10.876;2023-08-17T05:02:53;17.90;;;16.90;;
2175;SDS011;1094;49.902;10.876;2023-08-17T05:05:19;17.43;;;16.53;;
2175;SDS011;1094;49.902;10.876;2023-08-17T05:07:46;18.27;;;17.23;;
2175;SDS011;1094;49.902;10.876;2023-08-17T05:10:12;18.50;;;17.40;;
2175;SDS011;1094;49.902;10.876;2023-08-17T05:12:38;17.80;;;16.70;;
2175;SDS011;1094;49.902;10.876;2023-08-17T05:15:05;17.47;;;16.47;;
2175;SDS011;1094;49.902;10.876;2023-08-17T05:17:31;18.57;;;17.50;;
2175;SDS011;1094;49.902;10.876;2023-08-17T05:19:56;18.07;;;17.00;;
2175;SDS011;1094;49.902;10.876;2023-08-17T05:22:22;19.20;;;18.20;;
2175;SDS011;1094;49.902;10.876;2023-08-17T05:24:49;19.00;;;18.00;;
2175;SDS011;1094;49.902;10.876;2023-08-17T05:27:14;18.93;;;17.73;;
2175;SDS011;1094;49.902;10.876;2023-08-17T05:29:40;18.70;;;17.57;;
2175;SDS011;1094;49.902;10.876;2023-08-17T05:32:06;18.47;;;17.37;;
2175;SDS011;1094;49.902;10.876;2023-08-17T05:34:32;18.80;;;17.80;;
2175;SDS011;1094;49.902;10.876;2023-08-17T05:36:58;18.67;;;17.67;;
2175;SDS011;1094;49.902;10.876;2023-08-17T05:39:24;19.07;;;17.87;;
2175;SDS011;1094;49.902;10.876;2023-08-17T05:41:50;18.77;;;17.77;;
2175;SDS011;1094;49.902;10.876;2023-08-17T05:44:17;18.50;;;17.50;;
2175;SDS011;1094;49.902;10.876;2023-08-17T05:46:43;18.33;;;17.33;;
2175;SDS011;1094;49.902;10.876;2023-08-17T05:49:09;18.40;;;17.30;;
2175;SDS011;1094;49.902;10.876;2023-08-17T05:51:35;18.37;;;17.27;;
2175;SDS011;1094;49.902;10.876;2023-08-17T05:54:01;17.83;;;16.83;;
2175;SDS011;1094;49.902;10.876;2023-08-17T05:56:27;18.17;;;17.17;;
2175;SDS011;1094;49.902;10.876;2023-08-17T05:58:53;18.70;;;17.30;;
2175;SDS011;1094;49.902;10.876;2023-08-17T06:01:19;18.17;;;16.97;;
2175;SDS011;1094;49.902;10.876;2023-08-17T06:03:45;17.77;;;16.87;;
2175;SDS011;1094;49.902;10.876;2023-08-17T06:06:11;18.03;;;17.03;;
2175;SDS011;1094;49.902;10.876;2023-08-17T06:08:37;17.80;;;16.90;;
2175;SDS011;1094;49.902;10.876;2023-08-17T06:11:03;18.30;;;17.40;;
2175;SDS011;1094;49.902;10.876;2023-08-17T06:13:29;18.63;;;17.53;;
2175;SDS011;1094;49.902;10.876;2023-08-17T06:15:56;18.30;;;17.30;;
2175;SDS011;1094;49.902;10.876;2023-08-17T06:18:22;19.10;;;17.83;;
2175;SDS011;1094;49.902;10.876;2023-08-17T06:20:48;18.63;;;17.57;;
2175;SDS011;1094;49.902;10.876;2023-08-17T06:23:17;18.93;;;17.73;;
2175;SDS011;1094;49.902;10.876;2023-08-17T06:25:42;18.47;;;17.27;;
2175;SDS011;1094;49.902;10.876;2023-08-17T06:28:08;18.73;;;17.53;;
2175;SDS011;1094;49.902;10.876;2023-08-17T06:30:34;18.97;;;17.77;;
2175;SDS011;1094;49.902;10.876;2023-08-17T06:33:00;18.33;;;17.43;;
2175;SDS011;1094;49.902;10.876;2023-08-17T06:35:26;18.60;;;17.40;;
2175;SDS011;1094;49.902;10.876;2023-08-17T06:37:52;17.60;;;16.70;;
2175;SDS011;1094;49.902;10.876;2023-08-17T06:40:21;18.57;;;17.30;;
2175;SDS011;1094;49.902;10.876;2023-08-17T06:42:47;17.87;;;16.90;;
2175;SDS011;1094;49.902;10.876;2023-08-17T06:45:13;18.40;;;17.33;;
2175;SDS011;1094;49.902;10.876;2023-08-17T06:47:43;18.10;;;17.00;;
2175;SDS011;1094;49.902;10.876;2023-08-17T06:50:10;18.00;;;17.00;;
2175;SDS011;1094;49.902;10.876;2023-08-17T06:52:36;17.50;;;16.47;;
2175;SDS011;1094;49.902;10.876;2023-08-17T06:55:02;17.87;;;16.87;;
2175;SDS011;1094;49.902;10.876;2023-08-17T06:57:28;18.37;;;17.20;;
2175;SDS011;1094;49.902;10.876;2023-08-17T06:59:54;18.57;;;17.60;;
2175;SDS011;1094;49.902;10.876;2023-08-17T07:02:20;18.57;;;17.50;;
2175;SDS011;1094;49.902;10.876;2023-08-17T07:04:46;18.17;;;17.17;;
2175;SDS011;1094;49.902;10.876;2023-08-17T07:07:12;18.93;;;17.87;;
2175;SDS011;1094;49.902;10.876;2023-08-17T07:09:39;18.17;;;17.17;;
2175;SDS011;1094;49.902;10.876;2023-08-17T07:12:05;18.87;;;17.77;;
2175;SDS011;1094;49.902;10.876;2023-08-17T07:14:31;19.10;;;17.80;;
2175;SDS011;1094;49.902;10.876;2023-08-17T07:16:58;18.77;;;17.67;;
2175;SDS011;1094;49.902;10.876;2023-08-17T07:19:24;18.40;;;17.50;;
2175;SDS011;1094;49.902;10.876;2023-08-17T07:21:50;18.30;;;17.30;;
2175;SDS011;1094;49.902;10.876;2023-08-17T07:24:16;18.93;;;17.93;;
2175;SDS011;1094;49.902;10.876;2023-08-17T07:26:42;18.80;;;17.80;;
2175;SDS011;1094;49.902;10.876;2023-08-17T07:29:08;19.00;;;17.90;;
2175;SDS011;1094;49.902;10.876;2023-08-17T07:31:36;19.27;;;18.17;;
2175;SDS011;1094;49.902;10.876;2023-08-17T07:34:02;19.87;;;18.67;;
2175;SDS011;1094;49.902;10.876;2023-08-17T07:36:28;20.50;;;18.10;;
2175;SDS011;1094;49.902;10.876;2023-08-17T07:38:54;18.80;;;17.80;;
2175;SDS011;1094;49.902;10.876;2023-08-17T07:41:21;18.90;;;17.90;;
2175;SDS011;1094;49.902;10.876;2023-08-17T07:43:47;19.40;;;18.20;;
2175;SDS011;1094;49.902;10.876;2023-08-17T07:46:13;18.93;;;17.93;;
2175;SDS011;1094;49.902;10.876;2023-08-17T07:48:39;20.60;;;18.90;;
2175;SDS011;1094;49.902;10.876;2023-08-17T07:51:04;20.27;;;18.87;;
2175;SDS011;1094;49.902;10.876;2023-08-17T07:53:30;19.23;;;18.10;;
2175;SDS011;1094;49.902;10.876;2023-08-17T07:55:56;19.67;;;18.57;;
2175;SDS011;1094;49.902;10.876;2023-08-17T07:58:22;19.87;;;18.77;;
2175;SDS011;1094;49.902;10.876;2023-08-17T08:00:48;20.27;;;19.07;;
2175;SDS011;1094;49.902;10.876;2023-08-17T08:03:14;20.40;;;18.97;;
2175;SDS011;1094;49.902;10.876;2023-08-17T08:05:40;20.00;;;18.90;;
2175;SDS011;1094;49.902;10.876;2023-08-17T08:08:06;20.50;;;19.17;;
2175;SDS011;1094;49.902;10.876;2023-08-17T08:10:32;20.10;;;18.97;;
2175;SDS011;1094;49.902;10.876;2023-08-17T08:12:58;20.10;;;18.73;;
2175;SDS011;1094;49.902;10.876;2023-08-17T08:15:24;20.87;;;19.67;;
2175;SDS011;1094;49.902;10.876;2023-08-17T08:17:50;20.30;;;19.10;;
2175;SDS011;1094;49.902;10.876;2023-08-17T08:20:16;20.43;;;18.87;;
2175;SDS011;1094;49.902;10.876;2023-08-17T08:22:42;20.70;;;19.30;;
2175;SDS011;1094;49.902;10.876;2023-08-17T08:25:08;21.02;;;19.73;;
2175;SDS011;1094;49.902;10.876;2023-08-17T08:27:34;20.40;;;19.10;;
2175;SDS011;1094;49.902;10.876;2023-08-17T08:30:00;20.10;;;19.00;;
2175;SDS011;1094;49.902;10.876;2023-08-17T08:32:26;20.10;;;18.77;;
2175;SDS011;1094;49.902;10.876;2023-08-17T08:34:52;20.55;;;18.80;;
2175;SDS011;1094;49.902;10.876;2023-08-17T08:37:18;20.60;;;19.30;;
2175;SDS011;1094;49.902;10.876;2023-08-17T08:39:50;19.88;;;18.67;;
2175;SDS011;1094;49.902;10.876;2023-08-17T08:42:17;20.25;;;19.15;;
2175;SDS011;1094;49.902;10.876;2023-08-17T08:44:43;20.83;;;19.27;;
2175;SDS011;1094;49.902;10.876;2023-08-17T08:47:09;20.30;;;18.80;;
2175;SDS011;1094;49.902;10.876;2023-08-17T08:49:38;20.88;;;19.50;;
2175;SDS011;1094;49.902;10.876;2023-08-17T08:52:07;19.70;;;18.60;;
2175;SDS011;1094;49.902;10.876;2023-08-17T08:54:33;20.83;;;19.52;;
2175;SDS011;1094;49.902;10.876;2023-08-17T08:57:01;19.92;;;18.58;;
2175;SDS011;1094;49.902;10.876;2023-08-17T08:59:29;20.23;;;19.10;;
2175;SDS011;1094;49.902;10.876;2023-08-17T09:01:57;20.05;;;18.90;;
2175;SDS011;1094;49.902;10.876;2023-08-17T09:04:23;20.33;;;18.90;;
2175;SDS011;1094;49.902;10.876;2023-08-17T09:06:50;19.65;;;18.55;;
2175;SDS011;1094;49.902;10.876;2023-08-17T09:09:16;20.20;;;18.80;;
2175;SDS011;1094;49.902;10.876;2023-08-17T09:11:42;20.55;;;19.35;;
2175;SDS011;1094;49.902;10.876;2023-08-17T09:14:08;20.15;;;18.85;;
2175;SDS011;1094;49.902;10.876;2023-08-17T09:16:34;20.00;;;18.77;;
2175;SDS011;1094;49.902;10.876;2023-08-17T09:19:00;19.63;;;18.52;;
2175;SDS011;1094;49.902;10.876;2023-08-17T09:21:30;20.10;;;18.77;;
2175;SDS011;1094;49.902;10.876;2023-08-17T09:23:57;19.80;;;18.42;;
2175;SDS011;1094;49.902;10.876;2023-08-17T09:26:23;19.42;;;18.23;;
2175;SDS011;1094;49.902;10.876;2023-08-17T09:28:49;19.50;;;18.42;;
2175;SDS011;1094;49.902;10.876;2023-08-17T09:31:15;20.05;;;18.90;;
2175;SDS011;1094;49.902;10.876;2023-08-17T09:33:41;19.48;;;18.40;;
2175;SDS011;1094;49.902;10.876;2023-08-17T09:36:09;21.23;;;19.75;;
2175;SDS011;1094;49.902;10.876;2023-08-17T09:38:36;20.15;;;19.08;;
2175;SDS011;1094;49.902;10.876;2023-08-17T09:41:03;19.45;;;18.35;;
2175;SDS011;1094;49.902;10.876;2023-08-17T09:43:31;19.40;;;18.20;;
2175;SDS011;1094;49.902;10.876;2023-08-17T09:45:59;19.35;;;18.30;;
2175;SDS011;1094;49.902;10.876;2023-08-17T09:48:26;19.98;;;18.88;;
2175;SDS011;1094;49.902;10.876;2023-08-17T09:50:53;19.80;;;18.60;;
2175;SDS011;1094;49.902;10.876;2023-08-17T09:53:21;20.85;;;19.40;;
2175;SDS011;1094;49.902;10.876;2023-08-17T09:55:47;19.85;;;18.75;;
2175;SDS011;1094;49.902;10.876;2023-08-17T09:58:13;19.55;;;18.35;;
2175;SDS011;1094;49.902;10.876;2023-08-17T10:00:49;19.63;;;18.52;;
2175;SDS011;1094;49.902;10.876;2023-08-17T10:03:16;19.98;;;18.88;;
2175;SDS011;1094;49.902;10.876;2023-08-17T10:05:43;20.48;;;19.10;;
2175;SDS011;1094;49.902;10.876;2023-08-17T10:08:10;20.35;;;19.25;;
2175;SDS011;1094;49.902;10.876;2023-08-17T10:10:38;18.98;;;17.95;;
2175;SDS011;1094;49.902;10.876;2023-08-17T10:13:09;19.73;;;18.55;;
2175;SDS011;1094;49.902;10.876;2023-08-17T10:15:54;19.50;;;18.42;;
2175;SDS011;1094;49.902;10.876;2023-08-17T10:18:27;19.40;;;18.30;;
2175;SDS011;1094;49.902;10.876;2023-08-17T10:20:57;19.70;;;18.70;;
2175;SDS011;1094;49.902;10.876;2023-08-17T10:23:25;19.27;;;18.27;;
2175;SDS011;1094;49.902;10.876;2023-08-17T10:25:51;19.58;;;18.58;;
2175;SDS011;1094;49.902;10.876;2023-08-17T10:28:18;19.38;;;18.25;;
2175;SDS011;1094;49.902;10.876;2023-08-17T10:30:44;18.40;;;17.45;;
2175;SDS011;1094;49.902;10.876;2023-08-17T10:33:11;19.60;;;18.50;;
2175;SDS011;1094;49.902;10.876;2023-08-17T10:35:37;20.40;;;18.58;;
2175;SDS011;1094;49.902;10.876;2023-08-17T10:38:04;18.77;;;17.88;;
2175;SDS011;1094;49.902;10.876;2023-08-17T10:40:36;18.85;;;17.88;;
2175;SDS011;1094;49.902;10.876;2023-08-17T10:43:02;19.40;;;18.40;;
2175;SDS011;1094;49.902;10.876;2023-08-17T10:45:29;18.95;;;17.60;;
2175;SDS011;1094;49.902;10.876;2023-08-17T10:50:31;19.55;;;18.45;;
2175;SDS011;1094;49.902;10.876;2023-08-17T10:52:58;19.13;;;17.92;;
2175;SDS011;1094;49.902;10.876;2023-08-17T10:55:44;19.33;;;18.13;;
2175;SDS011;1094;49.902;10.876;2023-08-17T10:58:10;18.05;;;17.10;;
2175;SDS011;1094;49.902;10.876;2023-08-17T11:00:40;18.75;;;17.75;;
2175;SDS011;1094;49.902;10.876;2023-08-17T11:03:20;18.20;;;17.30;;
2175;SDS011;1094;49.902;10.876;2023-08-17T11:05:47;19.05;;;18.10;;
2175;SDS011;1094;49.902;10.876;2023-08-17T11:10:56;19.17;;;17.98;;
2175;SDS011;1094;49.902;10.876;2023-08-17T11:13:23;19.17;;;18.17;;
2175;SDS011;1094;49.902;10.876;2023-08-17T11:15:49;19.27;;;18.10;;
2175;SDS011;1094;49.902;10.876;2023-08-17T11:18:16;18.90;;;17.80;;
2175;SDS011;1094;49.902;10.876;2023-08-17T11:20:42;19.08;;;17.80;;
2175;SDS011;1094;49.902;10.876;2023-08-17T11:23:08;19.20;;;17.85;;
2175;SDS011;1094;49.902;10.876;2023-08-17T11:25:34;18.23;;;17.33;;
2175;SDS011;1094;49.902;10.876;2023-08-17T11:28:00;19.27;;;18.23;;
2175;SDS011;1094;49.902;10.876;2023-08-17T11:30:27;18.80;;;17.80;;
2175;SDS011;1094;49.902;10.876;2023-08-17T11:32:53;18.90;;;17.83;;
2175;SDS011;1094;49.902;10.876;2023-08-17T11:35:19;17.98;;;17.17;;
2175;SDS011;1094;49.902;10.876;2023-08-17T11:37:46;18.80;;;17.80;;
2175;SDS011;1094;49.902;10.876;2023-08-17T11:40:13;18.65;;;17.75;;
2175;SDS011;1094;49.902;10.876;2023-08-17T11:42:39;18.35;;;17.45;;
2175;SDS011;1094;49.902;10.876;2023-08-17T11:45:05;19.55;;;18.55;;
2175;SDS011;1094;49.902;10.876;2023-08-17T11:47:38;19.45;;;18.35;;
2175;SDS011;1094;49.902;10.876;2023-08-17T11:50:05;20.08;;;18.88;;
2175;SDS011;1094;49.902;10.876;2023-08-17T11:52:31;20.00;;;18.88;;
2175;SDS011;1094;49.902;10.876;2023-08-17T11:55:06;19.35;;;18.35;;
2175;SDS011;1094;49.902;10.876;2023-08-17T11:57:34;20.10;;;19.10;;
2175;SDS011;1094;49.902;10.876;2023-08-17T12:00:01;19.52;;;18.42;;
2175;SDS011;1094;49.902;10.876;2023-08-17T12:02:28;19.73;;;18.52;;
2175;SDS011;1094;49.902;10.876;2023-08-17T12:04:56;20.00;;;18.80;;
2175;SDS011;1094;49.902;10.876;2023-08-17T12:07:25;19.40;;;18.30;;
2175;SDS011;1094;49.902;10.876;2023-08-17T12:09:51;19.38;;;18.08;;
2175;SDS011;1094;49.902;10.876;2023-08-17T12:12:19;19.52;;;18.42;;
2175;SDS011;1094;49.902;10.876;2023-08-17T12:14:47;18.92;;;17.92;;
2175;SDS011;1094;49.902;10.876;2023-08-17T12:17:16;19.40;;;18.20;;
2175;SDS011;1094;49.902;10.876;2023-08-17T12:19:42;19.70;;;18.65;;
2175;SDS011;1094;49.902;10.876;2023-08-17T12:22:08;20.55;;;19.15;;
2175;SDS011;1094;49.902;10.876;2023-08-17T12:24:34;20.13;;;18.92;;
2175;SDS011;1094;49.902;10.876;2023-08-17T12:27:02;20.83;;;19.20;;
2175;SDS011;1094;49.902;10.876;2023-08-17T12:29:28;20.17;;;18.98;;
2175;SDS011;1094;49.902;10.876;2023-08-17T12:31:56;19.67;;;18.67;;
2175;SDS011;1094;49.902;10.876;2023-08-17T12:34:22;19.42;;;18.45;;
2175;SDS011;1094;49.902;10.876;2023-08-17T12:36:48;20.95;;;19.70;;
2175;SDS011;1094;49.902;10.876;2023-08-17T12:39:14;20.45;;;19.05;;
2175;SDS011;1094;49.902;10.876;2023-08-17T12:41:40;20.80;;;19.50;;
2175;SDS011;1094;49.902;10.876;2023-08-17T12:44:08;19.63;;;18.58;;
2175;SDS011;1094;49.902;10.876;2023-08-17T12:46:37;20.40;;;19.08;;
2175;SDS011;1094;49.902;10.876;2023-08-17T12:49:03;21.10;;;19.80;;
2175;SDS011;1094;49.902;10.876;2023-08-17T12:51:28;22.50;;;21.20;;
2175;SDS011;1094;49.902;10.876;2023-08-17T12:53:54;22.83;;;21.53;;
2175;SDS011;1094;49.902;10.876;2023-08-17T12:56:21;21.47;;;20.17;;
2175;SDS011;1094;49.902;10.876;2023-08-17T12:58:47;21.97;;;20.77;;
2175;SDS011;1094;49.902;10.876;2023-08-17T13:01:13;22.97;;;21.40;;
2175;SDS011;1094;49.902;10.876;2023-08-17T13:03:39;24.00;;;22.50;;
2175;SDS011;1094;49.902;10.876;2023-08-17T13:06:05;24.40;;;22.93;;
2175;SDS011;1094;49.902;10.876;2023-08-17T13:08:31;23.67;;;22.00;;
2175;SDS011;1094;49.902;10.876;2023-08-17T13:10:56;23.93;;;22.40;;
2175;SDS011;1094;49.902;10.876;2023-08-17T13:13:22;23.27;;;21.97;;
2175;SDS011;1094;49.902;10.876;2023-08-17T13:15:48;23.03;;;21.73;;
2175;SDS011;1094;49.902;10.876;2023-08-17T13:18:14;23.60;;;22.17;;
2175;SDS011;1094;49.902;10.876;2023-08-17T13:20:40;23.03;;;21.73;;
2175;SDS011;1094;49.902;10.876;2023-08-17T13:23:07;23.40;;;22.10;;
2175;SDS011;1094;49.902;10.876;2023-08-17T13:25:33;23.77;;;22.00;;
2175;SDS011;1094;49.902;10.876;2023-08-17T13:27:58;23.90;;;22.50;;
2175;SDS011;1094;49.902;10.876;2023-08-17T13:30:24;23.90;;;22.50;;
2175;SDS011;1094;49.902;10.876;2023-08-17T13:32:50;24.40;;;22.90;;
2175;SDS011;1094;49.902;10.876;2023-08-17T13:35:16;24.97;;;23.37;;
2175;SDS011;1094;49.902;10.876;2023-08-17T13:37:42;23.60;;;22.30;;
2175;SDS011;1094;49.902;10.876;2023-08-17T13:40:08;25.57;;;23.53;;
2175;SDS011;1094;49.902;10.876;2023-08-17T13:42:35;24.17;;;22.57;;
2175;SDS011;1094;49.902;10.876;2023-08-17T13:45:02;23.87;;;22.57;;
2175;SDS011;1094;49.902;10.876;2023-08-17T13:47:28;23.70;;;22.40;;
2175;SDS011;1094;49.902;10.876;2023-08-17T13:49:54;24.70;;;23.00;;
2175;SDS011;1094;49.902;10.876;2023-08-17T13:52:22;23.87;;;22.57;;
2175;SDS011;1094;49.902;10.876;2023-08-17T13:54:48;24.00;;;22.33;;
2175;SDS011;1094;49.902;10.876;2023-08-17T13:57:14;24.30;;;22.80;;
2175;SDS011;1094;49.902;10.876;2023-08-17T13:59:40;24.67;;;22.97;;
2175;SDS011;1094;49.902;10.876;2023-08-17T14:02:06;23.93;;;22.50;;
2175;SDS011;1094;49.902;10.876;2023-08-17T14:04:32;24.90;;;23.10;;
2175;SDS011;1094;49.902;10.876;2023-08-17T14:06:58;25.00;;;23.50;;
2175;SDS011;1094;49.902;10.876;2023-08-17T14:09:24;24.43;;;22.63;;
2175;SDS011;1094;49.902;10.876;2023-08-17T14:11:49;26.00;;;23.77;;
2175;SDS011;1094;49.902;10.876;2023-08-17T14:14:15;24.33;;;22.73;;
2175;SDS011;1094;49.902;10.876;2023-08-17T14:16:42;24.73;;;23.23;;
2175;SDS011;1094;49.902;10.876;2023-08-17T14:19:08;24.90;;;23.10;;
2175;SDS011;1094;49.902;10.876;2023-08-17T14:21:34;25.10;;;23.50;;
2175;SDS011;1094;49.902;10.876;2023-08-17T14:24:00;24.40;;;22.80;;
2175;SDS011;1094;49.902;10.876;2023-08-17T14:26:26;24.90;;;23.27;;
2175;SDS011;1094;49.902;10.876;2023-08-17T14:28:52;24.17;;;22.67;;
2175;SDS011;1094;49.902;10.876;2023-08-17T14:31:17;24.80;;;22.97;;
2175;SDS011;1094;49.902;10.876;2023-08-17T14:33:44;24.57;;;22.77;;
2175;SDS011;1094;49.902;10.876;2023-08-17T14:36:14;24.73;;;23.23;;